sensor_id;sensor_type;location;lat;lon;timestamp;P1;durP1;ratioP1;P2;durP2;ratioP2
71083;SDS011;58741;52.672;13.548;2023-01-04T00:01:18;6.25;;;2.50;;
71083;SDS011;58741;52.672;13.548;2023-01-04T00:03:45;3.50;;;2.53;;
71083;SDS011;58741;52.672;13.548;2023-01-04T00:06:11;5.78;;;2.53;;
71083;SDS011;58741;52.672;13.548;2023-01-04T00:08:38;2.92;;;2.63;;
71083;SDS011;58741;52.672;13.548;2023-01-04T00:11:05;3.88;;;2.17;;
71083;SDS011;58741;52.672;13.548;2023-01-04T00:13:33;6.88;;;2.42;;
71083;SDS011;58741;52.672;13.548;2023-01-04T00:16:02;7.65;;;2.55;;
71083;SDS011;58741;52.672;13.548;2023-01-04T00:18:31;8.40;;;2.72;;
71083;SDS011;58741;52.672;13.548;2023-01-04T00:21:13;5.15;;;2.72;;
71083;SDS011;58741;52.672;13.548;2023-01-04T00:23:41;3.85;;;2.10;;
71083;SDS011;58741;52.672;13.548;2023-01-04T00:26:19;6.20;;;2.65;;
71083;SDS011;58741;52.672;13.548;2023-01-04T00:28:52;4.07;;;2.50;;
71083;SDS011;58741;52.672;13.548;2023-01-04T00:31:22;3.97;;;2.35;;
71083;SDS011;58741;52.672;13.548;2023-01-04T00:33:49;2.97;;;2.13;;
71083;SDS011;58741;52.672;13.548;2023-01-04T00:36:17;12.10;;;3.17;;
71083;SDS011;58741;52.672;13.548;2023-01-04T00:38:42;3.65;;;2.25;;
71083;SDS011;58741;52.672;13.548;2023-01-04T00:41:08;2.88;;;2.05;;
71083;SDS011;58741;52.672;13.548;2023-01-04T00:43:34;2.53;;;1.95;;
71083;SDS011;58741;52.672;13.548;2023-01-04T00:46:00;6.32;;;2.83;;
71083;SDS011;58741;52.672;13.548;2023-01-04T00:48:26;3.92;;;2.70;;
71083;SDS011;58741;52.672;13.548;2023-01-04T00:50:53;3.78;;;2.38;;
71083;SDS011;58741;52.672;13.548;2023-01-04T00:53:18;4.38;;;2.28;;
71083;SDS011;58741;52.672;13.548;2023-01-04T00:55:44;2.83;;;1.92;;
71083;SDS011;58741;52.672;13.548;2023-01-04T00:58:09;3.35;;;1.70;;
71083;SDS011;58741;52.672;13.548;2023-01-04T01:00:36;2.90;;;2.08;;
71083;SDS011;58741;52.672;13.548;2023-01-04T01:03:02;2.67;;;2.08;;
71083;SDS011;58741;52.672;13.548;2023-01-04T01:05:28;6.53;;;2.25;;
71083;SDS011;58741;52.672;13.548;2023-01-04T01:07:55;4.32;;;2.17;;
71083;SDS011;58741;52.672;13.548;2023-01-04T01:10:20;3.95;;;2.05;;
71083;SDS011;58741;52.672;13.548;2023-01-04T01:12:46;2.75;;;2.15;;
71083;SDS011;58741;52.672;13.548;2023-01-04T01:15:11;2.25;;;1.60;;
71083;SDS011;58741;52.672;13.548;2023-01-04T01:17:37;3.53;;;1.70;;
71083;SDS011;58741;52.672;13.548;2023-01-04T01:20:03;3.25;;;1.92;;
71083;SDS011;58741;52.672;13.548;2023-01-04T01:22:30;2.97;;;2.15;;
71083;SDS011;58741;52.672;13.548;2023-01-04T01:24:58;3.65;;;1.83;;
71083;SDS011;58741;52.672;13.548;2023-01-04T01:27:24;2.17;;;1.73;;
71083;SDS011;58741;52.672;13.548;2023-01-04T01:29:50;1.80;;;1.65;;
71083;SDS011;58741;52.672;13.548;2023-01-04T01:32:15;2.55;;;1.70;;
71083;SDS011;58741;52.672;13.548;2023-01-04T01:34:41;2.30;;;1.92;;
71083;SDS011;58741;52.672;13.548;2023-01-04T01:37:06;2.90;;;2.10;;
71083;SDS011;58741;52.672;13.548;2023-01-04T01:39:32;2.63;;;1.90;;
71083;SDS011;58741;52.672;13.548;2023-01-04T01:41:57;2.40;;;1.77;;
71083;SDS011;58741;52.672;13.548;2023-01-04T01:47:14;3.15;;;1.75;;
71083;SDS011;58741;52.672;13.548;2023-01-04T01:49:44;2.25;;;1.65;;
71083;SDS011;58741;52.672;13.548;2023-01-04T01:52:20;3.33;;;2.22;;
71083;SDS011;58741;52.672;13.548;2023-01-04T01:55:00;1.92;;;1.30;;
71083;SDS011;58741;52.672;13.548;2023-01-04T01:57:29;2.25;;;1.85;;
71083;SDS011;58741;52.672;13.548;2023-01-04T01:59:59;1.65;;;1.50;;
71083;SDS011;58741;52.672;13.548;2023-01-04T02:02:40;2.05;;;1.60;;
71083;SDS011;58741;52.672;13.548;2023-01-04T02:05:22;2.53;;;1.30;;
71083;SDS011;58741;52.672;13.548;2023-01-04T02:07:48;4.35;;;1.92;;
71083;SDS011;58741;52.672;13.548;2023-01-04T02:10:15;1.92;;;1.80;;
71083;SDS011;58741;52.672;13.548;2023-01-04T02:12:41;2.60;;;1.52;;
71083;SDS011;58741;52.672;13.548;2023-01-04T02:15:09;3.83;;;1.88;;
71083;SDS011;58741;52.672;13.548;2023-01-04T02:17:38;2.22;;;1.70;;
71083;SDS011;58741;52.672;13.548;2023-01-04T02:20:23;1.55;;;1.45;;
71083;SDS011;58741;52.672;13.548;2023-01-04T02:28:48;1.33;;;1.23;;
71083;SDS011;58741;52.672;13.548;2023-01-04T02:31:33;1.73;;;1.52;;
71083;SDS011;58741;52.672;13.548;2023-01-04T02:34:28;1.95;;;1.52;;
71083;SDS011;58741;52.672;13.548;2023-01-04T02:45:49;1.67;;;1.42;;
71083;SDS011;58741;52.672;13.548;2023-01-04T02:48:19;3.43;;;1.83;;
71083;SDS011;58741;52.672;13.548;2023-01-04T02:51:03;1.45;;;1.27;;
71083;SDS011;58741;52.672;13.548;2023-01-04T02:53:34;1.85;;;1.27;;
71083;SDS011;58741;52.672;13.548;2023-01-04T02:58:50;3.95;;;1.90;;
71083;SDS011;58741;52.672;13.548;2023-01-04T03:01:38;2.30;;;1.42;;
71083;SDS011;58741;52.672;13.548;2023-01-04T03:04:59;3.72;;;1.75;;
71083;SDS011;58741;52.672;13.548;2023-01-04T03:08:09;2.42;;;1.30;;
71083;SDS011;58741;52.672;13.548;2023-01-04T03:10:43;1.73;;;1.30;;
71083;SDS011;58741;52.672;13.548;2023-01-04T03:13:16;3.92;;;1.17;;
71083;SDS011;58741;52.672;13.548;2023-01-04T03:15:43;1.80;;;1.50;;
71083;SDS011;58741;52.672;13.548;2023-01-04T03:18:15;2.75;;;1.83;;
71083;SDS011;58741;52.672;13.548;2023-01-04T03:20:46;2.80;;;1.83;;
71083;SDS011;58741;52.672;13.548;2023-01-04T03:23:14;3.08;;;1.73;;
71083;SDS011;58741;52.672;13.548;2023-01-04T03:26:04;3.55;;;1.77;;
71083;SDS011;58741;52.672;13.548;2023-01-04T03:28:53;2.30;;;1.42;;
71083;SDS011;58741;52.672;13.548;2023-01-04T03:31:41;1.67;;;1.48;;
71083;SDS011;58741;52.672;13.548;2023-01-04T03:34:32;1.95;;;1.35;;
71083;SDS011;58741;52.672;13.548;2023-01-04T03:37:24;2.90;;;1.65;;
71083;SDS011;58741;52.672;13.548;2023-01-04T03:40:22;3.78;;;1.75;;
71083;SDS011;58741;52.672;13.548;2023-01-04T03:46:06;2.28;;;1.67;;
71083;SDS011;58741;52.672;13.548;2023-01-04T03:51:35;2.05;;;1.63;;
71083;SDS011;58741;52.672;13.548;2023-01-04T03:54:05;3.00;;;1.58;;
71083;SDS011;58741;52.672;13.548;2023-01-04T03:56:32;2.63;;;1.63;;
71083;SDS011;58741;52.672;13.548;2023-01-04T03:59:01;2.67;;;1.70;;
71083;SDS011;58741;52.672;13.548;2023-01-04T04:01:28;3.15;;;1.42;;
71083;SDS011;58741;52.672;13.548;2023-01-04T04:03:54;3.53;;;1.98;;
71083;SDS011;58741;52.672;13.548;2023-01-04T04:06:39;4.72;;;1.75;;
71083;SDS011;58741;52.672;13.548;2023-01-04T04:09:23;1.88;;;1.25;;
71083;SDS011;58741;52.672;13.548;2023-01-04T04:11:49;2.72;;;2.00;;
71083;SDS011;58741;52.672;13.548;2023-01-04T04:14:14;2.55;;;1.70;;
71083;SDS011;58741;52.672;13.548;2023-01-04T04:16:40;1.38;;;1.20;;
71083;SDS011;58741;52.672;13.548;2023-01-04T04:19:06;3.10;;;1.73;;
71083;SDS011;58741;52.672;13.548;2023-01-04T04:21:31;2.08;;;1.23;;
71083;SDS011;58741;52.672;13.548;2023-01-04T04:23:57;1.90;;;1.25;;
71083;SDS011;58741;52.672;13.548;2023-01-04T04:26:22;2.13;;;1.60;;
71083;SDS011;58741;52.672;13.548;2023-01-04T04:28:49;2.05;;;1.50;;
71083;SDS011;58741;52.672;13.548;2023-01-04T04:31:14;4.50;;;2.13;;
71083;SDS011;58741;52.672;13.548;2023-01-04T04:33:40;4.28;;;1.90;;
71083;SDS011;58741;52.672;13.548;2023-01-04T04:36:06;1.95;;;1.40;;
71083;SDS011;58741;52.672;13.548;2023-01-04T04:38:32;1.77;;;1.38;;
71083;SDS011;58741;52.672;13.548;2023-01-04T04:40:58;1.70;;;1.23;;
71083;SDS011;58741;52.672;13.548;2023-01-04T04:43:42;2.05;;;1.50;;
71083;SDS011;58741;52.672;13.548;2023-01-04T04:46:08;2.15;;;1.50;;
71083;SDS011;58741;52.672;13.548;2023-01-04T04:48:34;1.70;;;1.13;;
71083;SDS011;58741;52.672;13.548;2023-01-04T04:50:59;2.15;;;1.48;;
71083;SDS011;58741;52.672;13.548;2023-01-04T04:53:25;4.07;;;2.17;;
71083;SDS011;58741;52.672;13.548;2023-01-04T04:55:51;2.03;;;1.70;;
71083;SDS011;58741;52.672;13.548;2023-01-04T04:58:17;2.13;;;1.73;;
71083;SDS011;58741;52.672;13.548;2023-01-04T05:00:43;1.58;;;1.40;;
71083;SDS011;58741;52.672;13.548;2023-01-04T05:03:09;2.45;;;1.63;;
71083;SDS011;58741;52.672;13.548;2023-01-04T05:05:34;2.30;;;1.65;;
71083;SDS011;58741;52.672;13.548;2023-01-04T05:08:00;2.78;;;1.58;;
71083;SDS011;58741;52.672;13.548;2023-01-04T05:10:26;2.60;;;2.15;;
71083;SDS011;58741;52.672;13.548;2023-01-04T05:12:51;3.42;;;1.98;;
71083;SDS011;58741;52.672;13.548;2023-01-04T05:15:36;2.67;;;1.60;;
71083;SDS011;58741;52.672;13.548;2023-01-04T05:18:20;6.25;;;2.35;;
71083;SDS011;58741;52.672;13.548;2023-01-04T05:20:46;1.67;;;1.48;;
71083;SDS011;58741;52.672;13.548;2023-01-04T05:23:13;2.58;;;1.90;;
71083;SDS011;58741;52.672;13.548;2023-01-04T05:25:40;1.50;;;1.40;;
71083;SDS011;58741;52.672;13.548;2023-01-04T05:28:06;2.95;;;1.60;;
71083;SDS011;58741;52.672;13.548;2023-01-04T05:30:33;2.08;;;1.70;;
71083;SDS011;58741;52.672;13.548;2023-01-04T05:35:44;2.15;;;1.48;;
71083;SDS011;58741;52.672;13.548;2023-01-04T05:38:10;2.80;;;2.03;;
71083;SDS011;58741;52.672;13.548;2023-01-04T05:40:35;4.47;;;1.63;;
71083;SDS011;58741;52.672;13.548;2023-01-04T05:43:01;1.95;;;1.48;;
71083;SDS011;58741;52.672;13.548;2023-01-04T05:45:27;2.75;;;1.98;;
71083;SDS011;58741;52.672;13.548;2023-01-04T05:47:52;3.75;;;1.60;;
71083;SDS011;58741;52.672;13.548;2023-01-04T05:50:19;4.25;;;1.75;;
71083;SDS011;58741;52.672;13.548;2023-01-04T05:52:46;4.80;;;2.17;;
71083;SDS011;58741;52.672;13.548;2023-01-04T05:55:12;2.63;;;1.83;;
71083;SDS011;58741;52.672;13.548;2023-01-04T05:57:38;2.47;;;1.48;;
71083;SDS011;58741;52.672;13.548;2023-01-04T06:00:04;2.10;;;1.55;;
71083;SDS011;58741;52.672;13.548;2023-01-04T06:02:37;2.90;;;1.85;;
71083;SDS011;58741;52.672;13.548;2023-01-04T06:05:03;1.77;;;1.42;;
71083;SDS011;58741;52.672;13.548;2023-01-04T06:07:29;1.90;;;1.70;;
71083;SDS011;58741;52.672;13.548;2023-01-04T06:09:56;2.85;;;1.58;;
71083;SDS011;58741;52.672;13.548;2023-01-04T06:12:22;2.30;;;1.38;;
71083;SDS011;58741;52.672;13.548;2023-01-04T06:14:48;1.63;;;1.48;;
71083;SDS011;58741;52.672;13.548;2023-01-04T06:17:13;3.22;;;1.83;;
71083;SDS011;58741;52.672;13.548;2023-01-04T06:19:39;2.25;;;1.33;;
71083;SDS011;58741;52.672;13.548;2023-01-04T06:22:05;1.75;;;1.48;;
71083;SDS011;58741;52.672;13.548;2023-01-04T06:24:31;3.75;;;1.67;;
71083;SDS011;58741;52.672;13.548;2023-01-04T06:26:58;2.45;;;1.73;;
71083;SDS011;58741;52.672;13.548;2023-01-04T06:29:24;1.90;;;1.20;;
71083;SDS011;58741;52.672;13.548;2023-01-04T06:31:49;1.20;;;1.10;;
71083;SDS011;58741;52.672;13.548;2023-01-04T06:34:15;2.50;;;2.30;;
71083;SDS011;58741;52.672;13.548;2023-01-04T06:36:41;2.60;;;1.60;;
71083;SDS011;58741;52.672;13.548;2023-01-04T06:39:07;3.00;;;1.50;;
71083;SDS011;58741;52.672;13.548;2023-01-04T06:41:32;2.05;;;1.60;;
71083;SDS011;58741;52.672;13.548;2023-01-04T06:43:58;1.42;;;1.33;;
71083;SDS011;58741;52.672;13.548;2023-01-04T06:46:24;2.08;;;1.30;;
71083;SDS011;58741;52.672;13.548;2023-01-04T06:48:50;3.58;;;1.92;;
71083;SDS011;58741;52.672;13.548;2023-01-04T06:51:18;2.30;;;1.50;;
71083;SDS011;58741;52.672;13.548;2023-01-04T06:53:44;3.47;;;1.40;;
71083;SDS011;58741;52.672;13.548;2023-01-04T06:56:10;2.40;;;1.48;;
71083;SDS011;58741;52.672;13.548;2023-01-04T06:58:36;2.15;;;1.45;;
71083;SDS011;58741;52.672;13.548;2023-01-04T07:01:02;1.63;;;1.30;;
71083;SDS011;58741;52.672;13.548;2023-01-04T07:03:28;1.98;;;1.02;;
71083;SDS011;58741;52.672;13.548;2023-01-04T07:05:54;1.75;;;1.20;;
71083;SDS011;58741;52.672;13.548;2023-01-04T07:08:19;3.17;;;1.33;;
71083;SDS011;58741;52.672;13.548;2023-01-04T07:10:45;1.80;;;1.02;;
71083;SDS011;58741;52.672;13.548;2023-01-04T07:13:11;2.88;;;1.02;;
71083;SDS011;58741;52.672;13.548;2023-01-04T07:15:36;1.23;;;1.13;;
71083;SDS011;58741;52.672;13.548;2023-01-04T07:18:02;1.40;;;0.95;;
71083;SDS011;58741;52.672;13.548;2023-01-04T07:20:27;1.75;;;1.10;;
71083;SDS011;58741;52.672;13.548;2023-01-04T07:22:53;0.82;;;0.73;;
71083;SDS011;58741;52.672;13.548;2023-01-04T07:25:19;1.92;;;1.02;;
71083;SDS011;58741;52.672;13.548;2023-01-04T07:27:45;1.10;;;0.90;;
71083;SDS011;58741;52.672;13.548;2023-01-04T07:30:18;1.05;;;0.75;;
71083;SDS011;58741;52.672;13.548;2023-01-04T07:32:45;1.33;;;1.05;;
71083;SDS011;58741;52.672;13.548;2023-01-04T07:35:10;1.10;;;0.95;;
71083;SDS011;58741;52.672;13.548;2023-01-04T07:37:36;0.80;;;0.80;;
71083;SDS011;58741;52.672;13.548;2023-01-04T07:40:01;1.83;;;1.08;;
71083;SDS011;58741;52.672;13.548;2023-01-04T07:42:28;1.98;;;1.38;;
71083;SDS011;58741;52.672;13.548;2023-01-04T07:44:53;1.17;;;0.98;;
71083;SDS011;58741;52.672;13.548;2023-01-04T07:47:19;2.10;;;1.00;;
71083;SDS011;58741;52.672;13.548;2023-01-04T07:49:44;1.13;;;1.00;;
71083;SDS011;58741;52.672;13.548;2023-01-04T07:52:12;1.88;;;0.93;;
71083;SDS011;58741;52.672;13.548;2023-01-04T07:54:38;1.10;;;1.00;;
71083;SDS011;58741;52.672;13.548;2023-01-04T07:57:04;3.72;;;1.05;;
71083;SDS011;58741;52.672;13.548;2023-01-04T07:59:29;1.17;;;0.93;;
71083;SDS011;58741;52.672;13.548;2023-01-04T08:01:55;1.13;;;0.70;;
71083;SDS011;58741;52.672;13.548;2023-01-04T08:04:21;0.50;;;0.50;;
71083;SDS011;58741;52.672;13.548;2023-01-04T08:06:48;3.10;;;0.90;;
71083;SDS011;58741;52.672;13.548;2023-01-04T08:09:13;2.25;;;0.85;;
71083;SDS011;58741;52.672;13.548;2023-01-04T08:11:39;1.48;;;1.00;;
71083;SDS011;58741;52.672;13.548;2023-01-04T08:14:05;1.75;;;1.10;;
71083;SDS011;58741;52.672;13.548;2023-01-04T08:16:32;1.13;;;0.95;;
71083;SDS011;58741;52.672;13.548;2023-01-04T08:19:00;1.83;;;1.00;;
71083;SDS011;58741;52.672;13.548;2023-01-04T08:21:31;1.23;;;0.95;;
71083;SDS011;58741;52.672;13.548;2023-01-04T08:23:59;2.30;;;0.60;;
71083;SDS011;58741;52.672;13.548;2023-01-04T08:26:25;1.40;;;0.93;;
71083;SDS011;58741;52.672;13.548;2023-01-04T08:28:51;2.25;;;1.13;;
71083;SDS011;58741;52.672;13.548;2023-01-04T08:31:18;0.80;;;0.75;;
71083;SDS011;58741;52.672;13.548;2023-01-04T08:33:49;1.95;;;1.00;;
71083;SDS011;58741;52.672;13.548;2023-01-04T08:36:20;0.77;;;0.77;;
71083;SDS011;58741;52.672;13.548;2023-01-04T08:38:47;0.50;;;0.50;;
71083;SDS011;58741;52.672;13.548;2023-01-04T08:41:14;0.43;;;0.43;;
71083;SDS011;58741;52.672;13.548;2023-01-04T08:43:41;0.90;;;0.85;;
71083;SDS011;58741;52.672;13.548;2023-01-04T08:46:07;1.05;;;0.98;;
71083;SDS011;58741;52.672;13.548;2023-01-04T08:48:33;1.02;;;0.63;;
71083;SDS011;58741;52.672;13.548;2023-01-04T08:51:03;2.05;;;1.10;;
71083;SDS011;58741;52.672;13.548;2023-01-04T08:53:30;0.68;;;0.68;;
71083;SDS011;58741;52.672;13.548;2023-01-04T08:55:56;0.82;;;0.77;;
71083;SDS011;58741;52.672;13.548;2023-01-04T08:58:27;0.85;;;0.73;;
71083;SDS011;58741;52.672;13.548;2023-01-04T09:01:07;0.88;;;0.73;;
71083;SDS011;58741;52.672;13.548;2023-01-04T09:03:35;0.85;;;0.85;;
71083;SDS011;58741;52.672;13.548;2023-01-04T09:06:05;1.25;;;0.70;;
71083;SDS011;58741;52.672;13.548;2023-01-04T09:08:33;1.75;;;1.05;;
71083;SDS011;58741;52.672;13.548;2023-01-04T09:11:04;0.80;;;0.70;;
71083;SDS011;58741;52.672;13.548;2023-01-04T09:13:40;1.98;;;0.70;;
71083;SDS011;58741;52.672;13.548;2023-01-04T09:16:07;1.15;;;0.73;;
71083;SDS011;58741;52.672;13.548;2023-01-04T09:18:34;1.48;;;0.85;;
71083;SDS011;58741;52.672;13.548;2023-01-04T09:21:06;0.85;;;0.45;;
71083;SDS011;58741;52.672;13.548;2023-01-04T09:23:33;1.13;;;0.70;;
71083;SDS011;58741;52.672;13.548;2023-01-04T09:26:06;2.08;;;0.98;;
71083;SDS011;58741;52.672;13.548;2023-01-04T09:28:37;0.70;;;0.70;;
71083;SDS011;58741;52.672;13.548;2023-01-04T09:31:10;3.17;;;1.17;;
71083;SDS011;58741;52.672;13.548;2023-01-04T09:33:37;1.25;;;0.85;;
71083;SDS011;58741;52.672;13.548;2023-01-04T09:36:03;0.57;;;0.57;;
71083;SDS011;58741;52.672;13.548;2023-01-04T09:38:31;4.20;;;0.93;;
71083;SDS011;58741;52.672;13.548;2023-01-04T09:46:25;2.33;;;0.93;;
71083;SDS011;58741;52.672;13.548;2023-01-04T09:51:36;0.85;;;0.85;;
71083;SDS011;58741;52.672;13.548;2023-01-04T09:54:14;1.45;;;1.02;;
71083;SDS011;58741;52.672;13.548;2023-01-04T09:56:48;1.10;;;0.80;;
71083;SDS011;58741;52.672;13.548;2023-01-04T09:59:16;2.45;;;0.75;;
71083;SDS011;58741;52.672;13.548;2023-01-04T10:01:48;1.15;;;0.63;;
71083;SDS011;58741;52.672;13.548;2023-01-04T10:04:23;2.00;;;1.13;;
71083;SDS011;58741;52.672;13.548;2023-01-04T10:06:53;4.03;;;1.50;;
71083;SDS011;58741;52.672;13.548;2023-01-04T10:09:19;0.90;;;0.90;;
71083;SDS011;58741;52.672;13.548;2023-01-04T10:14:54;2.22;;;1.13;;
71083;SDS011;58741;52.672;13.548;2023-01-04T10:17:52;0.55;;;0.50;;
71083;SDS011;58741;52.672;13.548;2023-01-04T10:31:10;0.98;;;0.80;;
71083;SDS011;58741;52.672;13.548;2023-01-04T10:33:49;0.93;;;0.65;;
71083;SDS011;58741;52.672;13.548;2023-01-04T10:36:23;0.88;;;0.88;;
71083;SDS011;58741;52.672;13.548;2023-01-04T10:39:14;1.25;;;1.10;;
71083;SDS011;58741;52.672;13.548;2023-01-04T10:41:55;2.83;;;1.23;;
71083;SDS011;58741;52.672;13.548;2023-01-04T10:44:37;1.25;;;0.98;;
71083;SDS011;58741;52.672;13.548;2023-01-04T10:49:57;2.83;;;1.27;;
71083;SDS011;58741;52.672;13.548;2023-01-04T10:52:28;1.23;;;1.02;;
71083;SDS011;58741;52.672;13.548;2023-01-04T10:55:02;1.17;;;0.60;;
71083;SDS011;58741;52.672;13.548;2023-01-04T10:57:51;1.73;;;1.08;;
71083;SDS011;58741;52.672;13.548;2023-01-04T11:00:25;2.35;;;0.95;;
71083;SDS011;58741;52.672;13.548;2023-01-04T11:03:06;2.65;;;1.00;;
71083;SDS011;58741;52.672;13.548;2023-01-04T11:05:48;1.38;;;1.02;;
71083;SDS011;58741;52.672;13.548;2023-01-04T11:08:29;0.70;;;0.70;;
71083;SDS011;58741;52.672;13.548;2023-01-04T11:11:07;0.55;;;0.50;;
71083;SDS011;58741;52.672;13.548;2023-01-04T11:13:35;1.50;;;1.05;;
71083;SDS011;58741;52.672;13.548;2023-01-04T11:16:02;1.25;;;1.00;;
71083;SDS011;58741;52.672;13.548;2023-01-04T11:18:29;1.25;;;0.80;;
71083;SDS011;58741;52.672;13.548;2023-01-04T11:20:57;0.98;;;0.80;;
71083;SDS011;58741;52.672;13.548;2023-01-04T11:23:23;1.98;;;1.20;;
71083;SDS011;58741;52.672;13.548;2023-01-04T11:25:54;1.60;;;1.00;;
71083;SDS011;58741;52.672;13.548;2023-01-04T11:36:41;1.92;;;0.85;;
71083;SDS011;58741;52.672;13.548;2023-01-04T11:39:21;1.52;;;1.10;;
71083;SDS011;58741;52.672;13.548;2023-01-04T11:41:55;1.90;;;1.13;;
71083;SDS011;58741;52.672;13.548;2023-01-04T11:44:29;2.45;;;1.13;;
71083;SDS011;58741;52.672;13.548;2023-01-04T11:47:05;4.55;;;1.02;;
71083;SDS011;58741;52.672;13.548;2023-01-04T11:49:39;1.48;;;1.13;;
71083;SDS011;58741;52.672;13.548;2023-01-04T11:52:05;4.13;;;1.08;;
71083;SDS011;58741;52.672;13.548;2023-01-04T11:54:50;1.08;;;0.98;;
71083;SDS011;58741;52.672;13.548;2023-01-04T11:57:19;1.83;;;1.00;;
71083;SDS011;58741;52.672;13.548;2023-01-04T11:59:52;1.38;;;1.08;;
71083;SDS011;58741;52.672;13.548;2023-01-04T12:02:33;1.65;;;1.00;;
71083;SDS011;58741;52.672;13.548;2023-01-04T12:04:58;1.20;;;0.93;;
71083;SDS011;58741;52.672;13.548;2023-01-04T12:07:31;2.03;;;1.33;;
71083;SDS011;58741;52.672;13.548;2023-01-04T12:09:59;0.88;;;0.80;;
71083;SDS011;58741;52.672;13.548;2023-01-04T12:12:28;1.38;;;1.17;;
71083;SDS011;58741;52.672;13.548;2023-01-04T12:14:55;0.93;;;0.73;;
71083;SDS011;58741;52.672;13.548;2023-01-04T12:17:41;1.05;;;0.90;;
71083;SDS011;58741;52.672;13.548;2023-01-04T12:20:16;1.92;;;1.00;;
71083;SDS011;58741;52.672;13.548;2023-01-04T12:22:45;1.05;;;0.95;;
71083;SDS011;58741;52.672;13.548;2023-01-04T12:25:20;1.88;;;1.00;;
71083;SDS011;58741;52.672;13.548;2023-01-04T12:27:52;2.30;;;1.27;;
71083;SDS011;58741;52.672;13.548;2023-01-04T12:30:38;1.25;;;0.68;;
71083;SDS011;58741;52.672;13.548;2023-01-04T12:41:18;0.93;;;0.70;;
71083;SDS011;58741;52.672;13.548;2023-01-04T12:43:49;1.83;;;1.08;;
71083;SDS011;58741;52.672;13.548;2023-01-04T12:54:43;0.93;;;0.77;;
71083;SDS011;58741;52.672;13.548;2023-01-04T13:02:20;0.80;;;0.68;;
71083;SDS011;58741;52.672;13.548;2023-01-04T13:04:55;0.80;;;0.80;;
71083;SDS011;58741;52.672;13.548;2023-01-04T13:07:28;3.83;;;2.42;;
71083;SDS011;58741;52.672;13.548;2023-01-04T13:09:57;1.08;;;0.80;;
71083;SDS011;58741;52.672;13.548;2023-01-04T13:12:45;0.95;;;0.77;;
71083;SDS011;58741;52.672;13.548;2023-01-04T13:20:56;1.65;;;1.02;;
71083;SDS011;58741;52.672;13.548;2023-01-04T13:23:23;0.80;;;0.80;;
71083;SDS011;58741;52.672;13.548;2023-01-04T13:25:50;0.75;;;0.65;;
71083;SDS011;58741;52.672;13.548;2023-01-04T13:28:16;1.05;;;0.80;;
71083;SDS011;58741;52.672;13.548;2023-01-04T13:30:42;1.38;;;0.70;;
71083;SDS011;58741;52.672;13.548;2023-01-04T13:33:10;0.68;;;0.65;;
71083;SDS011;58741;52.672;13.548;2023-01-04T13:35:43;0.77;;;0.70;;
71083;SDS011;58741;52.672;13.548;2023-01-04T13:38:13;1.92;;;1.05;;
71083;SDS011;58741;52.672;13.548;2023-01-04T13:40:44;1.10;;;0.75;;
71083;SDS011;58741;52.672;13.548;2023-01-04T13:46:13;0.80;;;0.65;;
71083;SDS011;58741;52.672;13.548;2023-01-04T13:48:40;1.10;;;0.93;;
71083;SDS011;58741;52.672;13.548;2023-01-04T13:51:28;0.80;;;0.73;;
71083;SDS011;58741;52.672;13.548;2023-01-04T13:53:59;1.10;;;0.90;;
71083;SDS011;58741;52.672;13.548;2023-01-04T13:56:27;1.25;;;0.73;;
71083;SDS011;58741;52.672;13.548;2023-01-04T13:58:55;1.10;;;0.98;;
71083;SDS011;58741;52.672;13.548;2023-01-04T14:01:28;1.33;;;1.17;;
71083;SDS011;58741;52.672;13.548;2023-01-04T14:06:27;1.10;;;1.00;;
71083;SDS011;58741;52.672;13.548;2023-01-04T14:09:11;0.60;;;0.60;;
71083;SDS011;58741;52.672;13.548;2023-01-04T14:11:43;1.10;;;1.00;;
71083;SDS011;58741;52.672;13.548;2023-01-04T14:14:43;4.18;;;0.82;;
71083;SDS011;58741;52.672;13.548;2023-01-04T14:17:17;1.15;;;0.90;;
71083;SDS011;58741;52.672;13.548;2023-01-04T14:20:03;1.15;;;0.80;;
71083;SDS011;58741;52.672;13.548;2023-01-04T14:36:02;1.63;;;0.85;;
71083;SDS011;58741;52.672;13.548;2023-01-04T14:43:43;0.75;;;0.75;;
71083;SDS011;58741;52.672;13.548;2023-01-04T14:46:09;0.70;;;0.70;;
71083;SDS011;58741;52.672;13.548;2023-01-04T14:48:34;0.73;;;0.63;;
71083;SDS011;58741;52.672;13.548;2023-01-04T14:51:00;0.55;;;0.55;;
71083;SDS011;58741;52.672;13.548;2023-01-04T14:53:27;0.70;;;0.63;;
71083;SDS011;58741;52.672;13.548;2023-01-04T14:55:52;0.90;;;0.65;;
71083;SDS011;58741;52.672;13.548;2023-01-04T14:58:19;1.10;;;0.80;;
71083;SDS011;58741;52.672;13.548;2023-01-04T15:00:45;0.70;;;0.68;;
71083;SDS011;58741;52.672;13.548;2023-01-04T15:03:11;0.50;;;0.50;;
71083;SDS011;58741;52.672;13.548;2023-01-04T15:05:36;0.73;;;0.52;;
71083;SDS011;58741;52.672;13.548;2023-01-04T15:08:02;0.88;;;0.80;;
71083;SDS011;58741;52.672;13.548;2023-01-04T15:10:28;0.68;;;0.57;;
71083;SDS011;58741;52.672;13.548;2023-01-04T15:12:55;1.55;;;0.85;;
71083;SDS011;58741;52.672;13.548;2023-01-04T15:15:24;1.88;;;0.85;;
71083;SDS011;58741;52.672;13.548;2023-01-04T15:17:50;1.42;;;0.80;;
71083;SDS011;58741;52.672;13.548;2023-01-04T15:20:16;1.63;;;0.75;;
71083;SDS011;58741;52.672;13.548;2023-01-04T15:22:42;3.30;;;0.88;;
71083;SDS011;58741;52.672;13.548;2023-01-04T15:25:09;0.77;;;0.68;;
71083;SDS011;58741;52.672;13.548;2023-01-04T15:27:35;1.27;;;0.93;;
71083;SDS011;58741;52.672;13.548;2023-01-04T15:30:01;0.80;;;0.80;;
71083;SDS011;58741;52.672;13.548;2023-01-04T15:32:27;1.10;;;0.70;;
71083;SDS011;58741;52.672;13.548;2023-01-04T15:34:53;1.25;;;0.82;;
71083;SDS011;58741;52.672;13.548;2023-01-04T15:37:18;0.60;;;0.60;;
71083;SDS011;58741;52.672;13.548;2023-01-04T15:39:45;0.80;;;0.80;;
71083;SDS011;58741;52.672;13.548;2023-01-04T15:42:11;0.95;;;0.85;;
71083;SDS011;58741;52.672;13.548;2023-01-04T15:44:55;1.65;;;0.90;;
71083;SDS011;58741;52.672;13.548;2023-01-04T15:47:21;1.25;;;0.75;;
71083;SDS011;58741;52.672;13.548;2023-01-04T15:49:46;0.47;;;0.47;;
71083;SDS011;58741;52.672;13.548;2023-01-04T15:52:12;2.53;;;0.80;;
71083;SDS011;58741;52.672;13.548;2023-01-04T15:54:37;0.95;;;0.80;;
71083;SDS011;58741;52.672;13.548;2023-01-04T15:57:03;0.85;;;0.60;;
71083;SDS011;58741;52.672;13.548;2023-01-04T15:59:29;1.10;;;1.00;;
71083;SDS011;58741;52.672;13.548;2023-01-04T16:01:54;0.80;;;0.80;;
71083;SDS011;58741;52.672;13.548;2023-01-04T16:04:20;1.13;;;0.90;;
71083;SDS011;58741;52.672;13.548;2023-01-04T16:06:45;1.77;;;0.80;;
71083;SDS011;58741;52.672;13.548;2023-01-04T16:09:11;1.15;;;0.70;;
71083;SDS011;58741;52.672;13.548;2023-01-04T16:11:37;2.50;;;1.08;;
71083;SDS011;58741;52.672;13.548;2023-01-04T16:14:22;1.63;;;1.05;;
71083;SDS011;58741;52.672;13.548;2023-01-04T16:16:48;0.52;;;0.52;;
71083;SDS011;58741;52.672;13.548;2023-01-04T16:19:13;1.63;;;0.80;;
71083;SDS011;58741;52.672;13.548;2023-01-04T16:21:39;0.95;;;0.65;;
71083;SDS011;58741;52.672;13.548;2023-01-04T16:24:04;2.38;;;1.20;;
71083;SDS011;58741;52.672;13.548;2023-01-04T16:26:31;1.05;;;0.82;;
71083;SDS011;58741;52.672;13.548;2023-01-04T16:28:56;2.72;;;0.85;;
71083;SDS011;58741;52.672;13.548;2023-01-04T16:31:24;1.55;;;1.33;;
71083;SDS011;58741;52.672;13.548;2023-01-04T16:33:50;2.30;;;1.73;;
71083;SDS011;58741;52.672;13.548;2023-01-04T16:36:17;1.55;;;0.88;;
71083;SDS011;58741;52.672;13.548;2023-01-04T16:38:43;0.90;;;0.88;;
71083;SDS011;58741;52.672;13.548;2023-01-04T16:41:11;0.90;;;0.60;;
71083;SDS011;58741;52.672;13.548;2023-01-04T16:43:56;0.70;;;0.70;;